sensor_id;sensor_type;location;lat;lon;timestamp;P1;durP1;ratioP1;P2;durP2;ratioP2
78430;SDS011;67727;50.236;22.452;2023-04-24T00:01:58;9.30;;;7.00;;
78430;SDS011;67727;50.236;22.452;2023-04-24T00:04:25;10.10;;;7.30;;
78430;SDS011;67727;50.236;22.452;2023-04-24T00:06:52;13.30;;;6.50;;
78430;SDS011;67727;50.236;22.452;2023-04-24T00:09:23;10.40;;;7.40;;
78430;SDS011;67727;50.236;22.452;2023-04-24T00:11:50;10.50;;;7.40;;
78430;SDS011;67727;50.236;22.452;2023-04-24T00:14:17;12.00;;;7.10;;
78430;SDS011;67727;50.236;22.452;2023-04-24T00:16:44;12.40;;;7.40;;
78430;SDS011;67727;50.236;22.452;2023-04-24T00:19:11;10.30;;;7.80;;
78430;SDS011;67727;50.236;22.452;2023-04-24T00:21:39;9.20;;;6.80;;
78430;SDS011;67727;50.236;22.452;2023-04-24T00:24:06;13.50;;;7.90;;
78430;SDS011;67727;50.236;22.452;2023-04-24T00:26:35;13.90;;;8.10;;
78430;SDS011;67727;50.236;22.452;2023-04-24T00:29:02;10.20;;;8.10;;
78430;SDS011;67727;50.236;22.452;2023-04-24T00:31:29;12.60;;;7.20;;
78430;SDS011;67727;50.236;22.452;2023-04-24T00:33:56;11.80;;;7.70;;
78430;SDS011;67727;50.236;22.452;2023-04-24T00:36:22;9.30;;;6.70;;
78430;SDS011;67727;50.236;22.452;2023-04-24T00:38:49;10.60;;;6.40;;
78430;SDS011;67727;50.236;22.452;2023-04-24T00:41:16;9.30;;;6.80;;
78430;SDS011;67727;50.236;22.452;2023-04-24T00:43:43;11.60;;;7.90;;
78430;SDS011;67727;50.236;22.452;2023-04-24T00:46:10;14.00;;;7.30;;
78430;SDS011;67727;50.236;22.452;2023-04-24T00:48:38;12.00;;;7.20;;
78430;SDS011;67727;50.236;22.452;2023-04-24T00:51:06;9.00;;;7.00;;
78430;SDS011;67727;50.236;22.452;2023-04-24T00:53:35;13.10;;;8.10;;
78430;SDS011;67727;50.236;22.452;2023-04-24T00:56:02;11.90;;;6.40;;
78430;SDS011;67727;50.236;22.452;2023-04-24T00:58:29;10.10;;;8.10;;
78430;SDS011;67727;50.236;22.452;2023-04-24T01:00:58;10.60;;;7.70;;
78430;SDS011;67727;50.236;22.452;2023-04-24T01:03:26;8.80;;;6.60;;
78430;SDS011;67727;50.236;22.452;2023-04-24T01:05:56;16.00;;;7.50;;
78430;SDS011;67727;50.236;22.452;2023-04-24T01:10:53;10.00;;;7.40;;
78430;SDS011;67727;50.236;22.452;2023-04-24T01:13:23;11.10;;;7.50;;
78430;SDS011;67727;50.236;22.452;2023-04-24T01:15:55;11.90;;;7.70;;
78430;SDS011;67727;50.236;22.452;2023-04-24T01:18:22;10.90;;;7.40;;
78430;SDS011;67727;50.236;22.452;2023-04-24T01:20:51;10.40;;;8.00;;
78430;SDS011;67727;50.236;22.452;2023-04-24T01:23:20;12.60;;;8.10;;
78430;SDS011;67727;50.236;22.452;2023-04-24T01:25:46;10.90;;;7.90;;
78430;SDS011;67727;50.236;22.452;2023-04-24T01:28:16;15.70;;;9.10;;
78430;SDS011;67727;50.236;22.452;2023-04-24T01:30:43;13.00;;;7.60;;
78430;SDS011;67727;50.236;22.452;2023-04-24T01:33:11;10.60;;;7.10;;
78430;SDS011;67727;50.236;22.452;2023-04-24T01:35:42;11.40;;;8.50;;
78430;SDS011;67727;50.236;22.452;2023-04-24T01:38:09;12.00;;;7.20;;
78430;SDS011;67727;50.236;22.452;2023-04-24T01:40:36;11.40;;;8.10;;
78430;SDS011;67727;50.236;22.452;2023-04-24T01:43:03;14.40;;;6.70;;
78430;SDS011;67727;50.236;22.452;2023-04-24T01:45:30;13.20;;;8.00;;
78430;SDS011;67727;50.236;22.452;2023-04-24T01:47:57;12.10;;;8.20;;
78430;SDS011;67727;50.236;22.452;2023-04-24T01:50:24;12.10;;;8.20;;
78430;SDS011;67727;50.236;22.452;2023-04-24T01:52:51;12.50;;;8.60;;
78430;SDS011;67727;50.236;22.452;2023-04-24T01:55:18;17.00;;;7.90;;
78430;SDS011;67727;50.236;22.452;2023-04-24T01:57:44;12.20;;;8.20;;
78430;SDS011;67727;50.236;22.452;2023-04-24T02:00:12;11.70;;;8.60;;
78430;SDS011;67727;50.236;22.452;2023-04-24T02:02:39;9.90;;;7.40;;
78430;SDS011;67727;50.236;22.452;2023-04-24T02:05:07;11.90;;;7.90;;
78430;SDS011;67727;50.236;22.452;2023-04-24T02:07:35;11.00;;;7.20;;
78430;SDS011;67727;50.236;22.452;2023-04-24T02:10:02;10.30;;;8.10;;
78430;SDS011;67727;50.236;22.452;2023-04-24T02:12:30;12.70;;;7.40;;
78430;SDS011;67727;50.236;22.452;2023-04-24T02:14:57;11.70;;;7.70;;
78430;SDS011;67727;50.236;22.452;2023-04-24T02:17:24;10.40;;;7.10;;
78430;SDS011;67727;50.236;22.452;2023-04-24T02:19:51;14.80;;;8.30;;
78430;SDS011;67727;50.236;22.452;2023-04-24T02:22:18;17.50;;;7.50;;
78430;SDS011;67727;50.236;22.452;2023-04-24T02:24:45;13.00;;;8.50;;
78430;SDS011;67727;50.236;22.452;2023-04-24T02:27:12;11.30;;;7.80;;
78430;SDS011;67727;50.236;22.452;2023-04-24T02:29:39;10.60;;;8.10;;
78430;SDS011;67727;50.236;22.452;2023-04-24T02:32:05;16.60;;;7.80;;
78430;SDS011;67727;50.236;22.452;2023-04-24T02:34:32;12.10;;;7.80;;
78430;SDS011;67727;50.236;22.452;2023-04-24T02:36:59;9.60;;;7.40;;
78430;SDS011;67727;50.236;22.452;2023-04-24T02:39:26;12.10;;;8.00;;
78430;SDS011;67727;50.236;22.452;2023-04-24T02:41:53;11.20;;;8.60;;
78430;SDS011;67727;50.236;22.452;2023-04-24T02:44:20;10.90;;;7.90;;
78430;SDS011;67727;50.236;22.452;2023-04-24T02:46:48;10.50;;;7.90;;
78430;SDS011;67727;50.236;22.452;2023-04-24T02:49:14;11.20;;;7.80;;
78430;SDS011;67727;50.236;22.452;2023-04-24T02:51:41;11.10;;;7.50;;
78430;SDS011;67727;50.236;22.452;2023-04-24T02:54:08;8.80;;;7.00;;
78430;SDS011;67727;50.236;22.452;2023-04-24T02:56:38;11.80;;;7.90;;
78430;SDS011;67727;50.236;22.452;2023-04-24T02:59:07;13.00;;;8.30;;
78430;SDS011;67727;50.236;22.452;2023-04-24T03:01:34;12.10;;;8.30;;
78430;SDS011;67727;50.236;22.452;2023-04-24T03:04:01;9.30;;;7.80;;
78430;SDS011;67727;50.236;22.452;2023-04-24T03:06:28;14.00;;;7.90;;
78430;SDS011;67727;50.236;22.452;2023-04-24T03:09:00;11.90;;;7.90;;
78430;SDS011;67727;50.236;22.452;2023-04-24T03:11:26;13.40;;;8.00;;
78430;SDS011;67727;50.236;22.452;2023-04-24T03:13:54;10.60;;;7.30;;
78430;SDS011;67727;50.236;22.452;2023-04-24T03:16:21;9.50;;;7.00;;
78430;SDS011;67727;50.236;22.452;2023-04-24T03:18:48;12.10;;;8.30;;
78430;SDS011;67727;50.236;22.452;2023-04-24T03:21:15;9.90;;;7.00;;
78430;SDS011;67727;50.236;22.452;2023-04-24T03:23:42;9.60;;;7.40;;
78430;SDS011;67727;50.236;22.452;2023-04-24T03:26:08;10.80;;;7.10;;
78430;SDS011;67727;50.236;22.452;2023-04-24T03:28:35;11.20;;;7.20;;
78430;SDS011;67727;50.236;22.452;2023-04-24T03:31:04;10.80;;;7.40;;
78430;SDS011;67727;50.236;22.452;2023-04-24T03:33:31;12.50;;;7.80;;
78430;SDS011;67727;50.236;22.452;2023-04-24T03:35:58;13.50;;;7.60;;
78430;SDS011;67727;50.236;22.452;2023-04-24T03:38:24;10.80;;;7.70;;
78430;SDS011;67727;50.236;22.452;2023-04-24T03:40:51;10.80;;;7.80;;
78430;SDS011;67727;50.236;22.452;2023-04-24T03:43:18;10.40;;;7.50;;
78430;SDS011;67727;50.236;22.452;2023-04-24T03:45:48;9.70;;;7.60;;
78430;SDS011;67727;50.236;22.452;2023-04-24T03:48:14;11.50;;;7.10;;
78430;SDS011;67727;50.236;22.452;2023-04-24T03:50:41;9.60;;;6.50;;
78430;SDS011;67727;50.236;22.452;2023-04-24T03:53:08;9.70;;;6.80;;
78430;SDS011;67727;50.236;22.452;2023-04-24T03:55:37;11.00;;;7.40;;
78430;SDS011;67727;50.236;22.452;2023-04-24T03:58:04;11.20;;;7.00;;
78430;SDS011;67727;50.236;22.452;2023-04-24T04:00:31;12.30;;;6.40;;
78430;SDS011;67727;50.236;22.452;2023-04-24T04:02:58;10.30;;;7.20;;
78430;SDS011;67727;50.236;22.452;2023-04-24T04:05:25;10.00;;;7.30;;
78430;SDS011;67727;50.236;22.452;2023-04-24T04:07:52;10.40;;;6.40;;
78430;SDS011;67727;50.236;22.452;2023-04-24T04:10:21;10.00;;;7.30;;
78430;SDS011;67727;50.236;22.452;2023-04-24T04:12:48;13.20;;;7.50;;
78430;SDS011;67727;50.236;22.452;2023-04-24T04:15:17;9.70;;;8.50;;
78430;SDS011;67727;50.236;22.452;2023-04-24T04:17:44;7.50;;;6.80;;
78430;SDS011;67727;50.236;22.452;2023-04-24T04:20:12;8.90;;;6.90;;
78430;SDS011;67727;50.236;22.452;2023-04-24T04:22:39;13.50;;;7.90;;
78430;SDS011;67727;50.236;22.452;2023-04-24T04:25:06;10.60;;;7.50;;
78430;SDS011;67727;50.236;22.452;2023-04-24T04:27:34;9.40;;;6.80;;
78430;SDS011;67727;50.236;22.452;2023-04-24T04:30:01;9.80;;;7.10;;
78430;SDS011;67727;50.236;22.452;2023-04-24T04:32:34;9.00;;;6.60;;
78430;SDS011;67727;50.236;22.452;2023-04-24T04:35:01;11.50;;;7.30;;
78430;SDS011;67727;50.236;22.452;2023-04-24T04:37:34;9.90;;;7.00;;
78430;SDS011;67727;50.236;22.452;2023-04-24T04:40:00;8.10;;;7.20;;
78430;SDS011;67727;50.236;22.452;2023-04-24T04:42:32;11.10;;;8.40;;
78430;SDS011;67727;50.236;22.452;2023-04-24T04:47:35;10.10;;;6.80;;
78430;SDS011;67727;50.236;22.452;2023-04-24T04:50:02;10.40;;;6.60;;
78430;SDS011;67727;50.236;22.452;2023-04-24T04:52:30;10.90;;;6.60;;
78430;SDS011;67727;50.236;22.452;2023-04-24T04:54:58;10.60;;;6.90;;
78430;SDS011;67727;50.236;22.452;2023-04-24T04:57:25;11.00;;;6.80;;
78430;SDS011;67727;50.236;22.452;2023-04-24T04:59:51;10.50;;;6.30;;
78430;SDS011;67727;50.236;22.452;2023-04-24T05:02:18;8.80;;;6.40;;
78430;SDS011;67727;50.236;22.452;2023-04-24T05:04:47;12.50;;;8.50;;
78430;SDS011;67727;50.236;22.452;2023-04-24T05:07:14;14.50;;;8.50;;
78430;SDS011;67727;50.236;22.452;2023-04-24T05:09:41;11.60;;;7.60;;
78430;SDS011;67727;50.236;22.452;2023-04-24T05:12:08;14.60;;;8.60;;
78430;SDS011;67727;50.236;22.452;2023-04-24T05:14:35;9.80;;;7.50;;
78430;SDS011;67727;50.236;22.452;2023-04-24T05:17:01;11.00;;;8.20;;
78430;SDS011;67727;50.236;22.452;2023-04-24T05:19:29;9.70;;;7.40;;
78430;SDS011;67727;50.236;22.452;2023-04-24T05:21:56;9.90;;;7.10;;
78430;SDS011;67727;50.236;22.452;2023-04-24T05:24:23;10.80;;;8.70;;
78430;SDS011;67727;50.236;22.452;2023-04-24T05:26:50;14.20;;;9.00;;
78430;SDS011;67727;50.236;22.452;2023-04-24T05:29:17;10.70;;;8.60;;
78430;SDS011;67727;50.236;22.452;2023-04-24T05:31:45;9.20;;;7.20;;
78430;SDS011;67727;50.236;22.452;2023-04-24T05:34:13;9.50;;;7.80;;
78430;SDS011;67727;50.236;22.452;2023-04-24T05:36:42;10.40;;;7.20;;
78430;SDS011;67727;50.236;22.452;2023-04-24T05:39:09;13.30;;;8.30;;
78430;SDS011;67727;50.236;22.452;2023-04-24T05:41:36;9.50;;;8.00;;
78430;SDS011;67727;50.236;22.452;2023-04-24T05:44:02;13.50;;;8.40;;
78430;SDS011;67727;50.236;22.452;2023-04-24T05:46:29;10.30;;;7.60;;
78430;SDS011;67727;50.236;22.452;2023-04-24T05:48:56;14.60;;;8.20;;
78430;SDS011;67727;50.236;22.452;2023-04-24T05:51:23;12.60;;;8.40;;
78430;SDS011;67727;50.236;22.452;2023-04-24T05:53:50;9.30;;;7.50;;
78430;SDS011;67727;50.236;22.452;2023-04-24T05:56:17;9.80;;;8.00;;
78430;SDS011;67727;50.236;22.452;2023-04-24T05:58:45;11.00;;;7.60;;
78430;SDS011;67727;50.236;22.452;2023-04-24T06:01:13;13.50;;;8.80;;
78430;SDS011;67727;50.236;22.452;2023-04-24T06:03:43;13.80;;;9.00;;
78430;SDS011;67727;50.236;22.452;2023-04-24T06:06:09;12.00;;;7.70;;
78430;SDS011;67727;50.236;22.452;2023-04-24T06:08:36;19.10;;;8.20;;
78430;SDS011;67727;50.236;22.452;2023-04-24T06:11:03;9.30;;;7.50;;
78430;SDS011;67727;50.236;22.452;2023-04-24T06:13:30;12.00;;;7.80;;
78430;SDS011;67727;50.236;22.452;2023-04-24T06:15:59;11.10;;;8.20;;
78430;SDS011;67727;50.236;22.452;2023-04-24T06:18:26;8.80;;;7.30;;
78430;SDS011;67727;50.236;22.452;2023-04-24T06:20:54;10.20;;;7.50;;
78430;SDS011;67727;50.236;22.452;2023-04-24T06:23:21;13.00;;;7.90;;
78430;SDS011;67727;50.236;22.452;2023-04-24T06:25:48;12.30;;;7.80;;
78430;SDS011;67727;50.236;22.452;2023-04-24T06:28:16;10.00;;;7.80;;
78430;SDS011;67727;50.236;22.452;2023-04-24T06:30:43;13.40;;;8.00;;
78430;SDS011;67727;50.236;22.452;2023-04-24T06:33:10;9.60;;;6.70;;
78430;SDS011;67727;50.236;22.452;2023-04-24T06:35:36;8.10;;;6.60;;
78430;SDS011;67727;50.236;22.452;2023-04-24T06:38:04;13.10;;;8.20;;
78430;SDS011;67727;50.236;22.452;2023-04-24T06:40:31;18.40;;;8.40;;
78430;SDS011;67727;50.236;22.452;2023-04-24T06:42:58;10.90;;;8.20;;
78430;SDS011;67727;50.236;22.452;2023-04-24T06:45:26;11.30;;;7.50;;
78430;SDS011;67727;50.236;22.452;2023-04-24T06:47:53;12.20;;;7.70;;
78430;SDS011;67727;50.236;22.452;2023-04-24T06:50:20;12.40;;;7.40;;
78430;SDS011;67727;50.236;22.452;2023-04-24T06:52:48;10.40;;;7.80;;
78430;SDS011;67727;50.236;22.452;2023-04-24T06:55:15;10.10;;;7.30;;
78430;SDS011;67727;50.236;22.452;2023-04-24T06:57:42;12.90;;;7.40;;
78430;SDS011;67727;50.236;22.452;2023-04-24T07:00:10;9.40;;;7.40;;
78430;SDS011;67727;50.236;22.452;2023-04-24T07:02:37;13.10;;;7.50;;
78430;SDS011;67727;50.236;22.452;2023-04-24T07:05:04;14.80;;;7.40;;
78430;SDS011;67727;50.236;22.452;2023-04-24T07:07:32;10.10;;;7.00;;
78430;SDS011;67727;50.236;22.452;2023-04-24T07:10:01;13.50;;;7.20;;
78430;SDS011;67727;50.236;22.452;2023-04-24T07:12:30;9.70;;;7.40;;
78430;SDS011;67727;50.236;22.452;2023-04-24T07:14:58;9.30;;;6.80;;
78430;SDS011;67727;50.236;22.452;2023-04-24T07:17:28;14.30;;;7.60;;
78430;SDS011;67727;50.236;22.452;2023-04-24T07:19:55;9.80;;;7.70;;
78430;SDS011;67727;50.236;22.452;2023-04-24T07:22:22;17.40;;;7.70;;
78430;SDS011;67727;50.236;22.452;2023-04-24T07:24:49;10.10;;;7.80;;
78430;SDS011;67727;50.236;22.452;2023-04-24T07:27:16;7.50;;;6.40;;
78430;SDS011;67727;50.236;22.452;2023-04-24T07:29:43;10.30;;;7.00;;
78430;SDS011;67727;50.236;22.452;2023-04-24T07:32:09;10.80;;;6.70;;
78430;SDS011;67727;50.236;22.452;2023-04-24T07:34:36;8.70;;;7.30;;
78430;SDS011;67727;50.236;22.452;2023-04-24T07:37:03;9.50;;;7.40;;
78430;SDS011;67727;50.236;22.452;2023-04-24T07:41:58;9.30;;;6.60;;
78430;SDS011;67727;50.236;22.452;2023-04-24T07:46:52;11.80;;;6.60;;
78430;SDS011;67727;50.236;22.452;2023-04-24T07:49:19;9.00;;;7.10;;
78430;SDS011;67727;50.236;22.452;2023-04-24T07:51:46;13.10;;;6.60;;
78430;SDS011;67727;50.236;22.452;2023-04-24T07:54:13;14.40;;;7.00;;
78430;SDS011;67727;50.236;22.452;2023-04-24T07:56:40;8.80;;;6.70;;
78430;SDS011;67727;50.236;22.452;2023-04-24T07:59:09;16.40;;;7.10;;
78430;SDS011;67727;50.236;22.452;2023-04-24T08:01:36;12.10;;;6.90;;
78430;SDS011;67727;50.236;22.452;2023-04-24T08:04:06;10.90;;;6.00;;
78430;SDS011;67727;50.236;22.452;2023-04-24T08:06:32;8.60;;;5.90;;
78430;SDS011;67727;50.236;22.452;2023-04-24T08:08:59;7.60;;;6.00;;
78430;SDS011;67727;50.236;22.452;2023-04-24T08:11:29;13.80;;;6.80;;
78430;SDS011;67727;50.236;22.452;2023-04-24T08:13:56;10.60;;;6.20;;
78430;SDS011;67727;50.236;22.452;2023-04-24T08:16:23;10.80;;;6.10;;
78430;SDS011;67727;50.236;22.452;2023-04-24T08:18:53;8.10;;;5.70;;
78430;SDS011;67727;50.236;22.452;2023-04-24T08:21:19;9.00;;;6.00;;
78430;SDS011;67727;50.236;22.452;2023-04-24T08:23:47;10.30;;;6.40;;
78430;SDS011;67727;50.236;22.452;2023-04-24T08:26:13;8.80;;;6.80;;
78430;SDS011;67727;50.236;22.452;2023-04-24T08:28:41;9.20;;;6.60;;
78430;SDS011;67727;50.236;22.452;2023-04-24T08:31:08;9.90;;;5.60;;
78430;SDS011;67727;50.236;22.452;2023-04-24T08:33:35;8.20;;;6.40;;
78430;SDS011;67727;50.236;22.452;2023-04-24T08:36:03;11.00;;;7.60;;
78430;SDS011;67727;50.236;22.452;2023-04-24T08:38:30;10.30;;;7.10;;
78430;SDS011;67727;50.236;22.452;2023-04-24T08:40:58;8.60;;;5.80;;
78430;SDS011;67727;50.236;22.452;2023-04-24T08:43:26;11.60;;;6.30;;
78430;SDS011;67727;50.236;22.452;2023-04-24T08:45:56;8.80;;;5.90;;
78430;SDS011;67727;50.236;22.452;2023-04-24T08:48:23;10.10;;;6.30;;
78430;SDS011;67727;50.236;22.452;2023-04-24T08:53:18;7.40;;;6.00;;
78430;SDS011;67727;50.236;22.452;2023-04-24T08:55:46;9.50;;;6.20;;
78430;SDS011;67727;50.236;22.452;2023-04-24T08:58:16;11.80;;;5.80;;
78430;SDS011;67727;50.236;22.452;2023-04-24T09:00:44;9.90;;;6.60;;
78430;SDS011;67727;50.236;22.452;2023-04-24T09:03:13;7.80;;;5.90;;
78430;SDS011;67727;50.236;22.452;2023-04-24T09:05:42;14.90;;;6.80;;
78430;SDS011;67727;50.236;22.452;2023-04-24T09:08:13;8.70;;;5.10;;
78430;SDS011;67727;50.236;22.452;2023-04-24T09:10:41;8.20;;;5.80;;
78430;SDS011;67727;50.236;22.452;2023-04-24T09:13:08;8.40;;;6.40;;
78430;SDS011;67727;50.236;22.452;2023-04-24T09:15:37;11.40;;;5.70;;
78430;SDS011;67727;50.236;22.452;2023-04-24T09:18:04;7.40;;;5.70;;
78430;SDS011;67727;50.236;22.452;2023-04-24T09:20:32;10.90;;;6.00;;
78430;SDS011;67727;50.236;22.452;2023-04-24T09:22:59;6.60;;;5.50;;
78430;SDS011;67727;50.236;22.452;2023-04-24T09:25:32;9.80;;;6.10;;
78430;SDS011;67727;50.236;22.452;2023-04-24T09:28:03;10.00;;;5.90;;
78430;SDS011;67727;50.236;22.452;2023-04-24T09:30:32;9.00;;;5.20;;
78430;SDS011;67727;50.236;22.452;2023-04-24T09:35:42;7.30;;;4.50;;
78430;SDS011;67727;50.236;22.452;2023-04-24T09:38:14;7.20;;;4.20;;
78430;SDS011;67727;50.236;22.452;2023-04-24T09:40:41;7.00;;;4.50;;
78430;SDS011;67727;50.236;22.452;2023-04-24T09:43:11;6.20;;;4.00;;
78430;SDS011;67727;50.236;22.452;2023-04-24T09:45:38;6.80;;;4.40;;
78430;SDS011;67727;50.236;22.452;2023-04-24T09:48:09;7.20;;;4.30;;
78430;SDS011;67727;50.236;22.452;2023-04-24T09:50:36;6.10;;;4.80;;
78430;SDS011;67727;50.236;22.452;2023-04-24T09:53:04;6.40;;;4.10;;
78430;SDS011;67727;50.236;22.452;2023-04-24T09:55:38;7.30;;;4.40;;
78430;SDS011;67727;50.236;22.452;2023-04-24T09:58:07;7.60;;;4.20;;
78430;SDS011;67727;50.236;22.452;2023-04-24T10:00:34;8.30;;;4.20;;
78430;SDS011;67727;50.236;22.452;2023-04-24T10:05:32;8.80;;;4.40;;
78430;SDS011;67727;50.236;22.452;2023-04-24T10:08:02;6.40;;;4.90;;
78430;SDS011;67727;50.236;22.452;2023-04-24T10:10:34;6.30;;;4.50;;
78430;SDS011;67727;50.236;22.452;2023-04-24T10:13:05;9.80;;;5.10;;
78430;SDS011;67727;50.236;22.452;2023-04-24T10:15:34;5.40;;;4.50;;
78430;SDS011;67727;50.236;22.452;2023-04-24T10:18:04;7.40;;;5.00;;
78430;SDS011;67727;50.236;22.452;2023-04-24T10:20:33;8.50;;;4.80;;
78430;SDS011;67727;50.236;22.452;2023-04-24T10:23:02;10.70;;;4.70;;
78430;SDS011;67727;50.236;22.452;2023-04-24T10:25:30;8.40;;;4.70;;
78430;SDS011;67727;50.236;22.452;2023-04-24T10:27:59;6.20;;;4.80;;
78430;SDS011;67727;50.236;22.452;2023-04-24T10:30:28;8.50;;;5.20;;
78430;SDS011;67727;50.236;22.452;2023-04-24T10:32:57;5.80;;;4.00;;
78430;SDS011;67727;50.236;22.452;2023-04-24T10:35:24;6.50;;;4.60;;
78430;SDS011;67727;50.236;22.452;2023-04-24T10:37:57;5.70;;;4.50;;
78430;SDS011;67727;50.236;22.452;2023-04-24T10:40:34;6.30;;;4.90;;
78430;SDS011;67727;50.236;22.452;2023-04-24T10:43:03;7.80;;;4.90;;
78430;SDS011;67727;50.236;22.452;2023-04-24T10:45:35;5.70;;;4.40;;
78430;SDS011;67727;50.236;22.452;2023-04-24T10:48:03;6.80;;;4.60;;
78430;SDS011;67727;50.236;22.452;2023-04-24T10:53:13;8.90;;;4.50;;
78430;SDS011;67727;50.236;22.452;2023-04-24T10:55:47;7.50;;;4.50;;
78430;SDS011;67727;50.236;22.452;2023-04-24T10:58:17;8.60;;;4.60;;
78430;SDS011;67727;50.236;22.452;2023-04-24T11:00:58;5.90;;;4.80;;
78430;SDS011;67727;50.236;22.452;2023-04-24T11:03:27;6.70;;;4.60;;
78430;SDS011;67727;50.236;22.452;2023-04-24T11:05:57;7.10;;;3.70;;
78430;SDS011;67727;50.236;22.452;2023-04-24T11:09:01;7.60;;;4.30;;
78430;SDS011;67727;50.236;22.452;2023-04-24T11:11:28;5.40;;;4.30;;
78430;SDS011;67727;50.236;22.452;2023-04-24T11:16:30;4.50;;;3.90;;
78430;SDS011;67727;50.236;22.452;2023-04-24T11:19:17;6.70;;;4.10;;
78430;SDS011;67727;50.236;22.452;2023-04-24T11:34:53;7.30;;;3.80;;
78430;SDS011;67727;50.236;22.452;2023-04-24T11:37:23;5.40;;;4.00;;
78430;SDS011;67727;50.236;22.452;2023-04-24T11:39:52;7.10;;;4.20;;
78430;SDS011;67727;50.236;22.452;2023-04-24T11:42:21;7.50;;;3.90;;
78430;SDS011;67727;50.236;22.452;2023-04-24T11:44:49;6.20;;;4.10;;
78430;SDS011;67727;50.236;22.452;2023-04-24T11:47:18;6.40;;;3.90;;
78430;SDS011;67727;50.236;22.452;2023-04-24T11:49:45;5.20;;;4.20;;
78430;SDS011;67727;50.236;22.452;2023-04-24T11:52:15;6.40;;;4.60;;
78430;SDS011;67727;50.236;22.452;2023-04-24T11:54:46;8.80;;;4.00;;
78430;SDS011;67727;50.236;22.452;2023-04-24T11:57:14;6.10;;;4.30;;
78430;SDS011;67727;50.236;22.452;2023-04-24T11:59:41;7.40;;;4.00;;
78430;SDS011;67727;50.236;22.452;2023-04-24T12:04:39;9.10;;;5.10;;
78430;SDS011;67727;50.236;22.452;2023-04-24T12:07:07;5.40;;;4.30;;
78430;SDS011;67727;50.236;22.452;2023-04-24T12:09:44;6.90;;;4.30;;
78430;SDS011;67727;50.236;22.452;2023-04-24T12:12:16;5.30;;;4.30;;
78430;SDS011;67727;50.236;22.452;2023-04-24T12:14:49;6.50;;;4.20;;
78430;SDS011;67727;50.236;22.452;2023-04-24T12:17:23;7.30;;;4.40;;
78430;SDS011;67727;50.236;22.452;2023-04-24T12:19:52;6.20;;;4.20;;
78430;SDS011;67727;50.236;22.452;2023-04-24T12:22:24;9.50;;;4.80;;
78430;SDS011;67727;50.236;22.452;2023-04-24T12:25:03;5.80;;;4.60;;
78430;SDS011;67727;50.236;22.452;2023-04-24T12:27:32;8.50;;;4.60;;
78430;SDS011;67727;50.236;22.452;2023-04-24T12:30:00;5.40;;;4.10;;
78430;SDS011;67727;50.236;22.452;2023-04-24T12:32:28;6.40;;;4.90;;
78430;SDS011;67727;50.236;22.452;2023-04-24T12:34:55;6.20;;;4.40;;
78430;SDS011;67727;50.236;22.452;2023-04-24T12:37:23;5.30;;;4.10;;
78430;SDS011;67727;50.236;22.452;2023-04-24T12:40:05;5.20;;;4.20;;
78430;SDS011;67727;50.236;22.452;2023-04-24T12:42:34;6.40;;;4.50;;
78430;SDS011;67727;50.236;22.452;2023-04-24T12:45:03;6.20;;;4.00;;
78430;SDS011;67727;50.236;22.452;2023-04-24T12:47:32;8.70;;;4.00;;
78430;SDS011;67727;50.236;22.452;2023-04-24T12:50:00;6.30;;;4.10;;
78430;SDS011;67727;50.236;22.452;2023-04-24T12:52:28;6.10;;;4.30;;
78430;SDS011;67727;50.236;22.452;2023-04-24T12:54:59;6.70;;;4.50;;
78430;SDS011;67727;50.236;22.452;2023-04-24T12:57:28;6.50;;;4.20;;
78430;SDS011;67727;50.236;22.452;2023-04-24T12:59:57;8.00;;;4.30;;
78430;SDS011;67727;50.236;22.452;2023-04-24T13:02:25;6.80;;;4.20;;
78430;SDS011;67727;50.236;22.452;2023-04-24T13:04:54;4.80;;;4.00;;
78430;SDS011;67727;50.236;22.452;2023-04-24T13:07:21;6.60;;;3.80;;
78430;SDS011;67727;50.236;22.452;2023-04-24T13:09:49;5.50;;;3.90;;
78430;SDS011;67727;50.236;22.452;2023-04-24T13:12:17;5.50;;;3.50;;
78430;SDS011;67727;50.236;22.452;2023-04-24T13:14:45;6.40;;;4.10;;
78430;SDS011;67727;50.236;22.452;2023-04-24T13:17:12;7.10;;;4.20;;
78430;SDS011;67727;50.236;22.452;2023-04-24T13:19:41;4.90;;;3.80;;
78430;SDS011;67727;50.236;22.452;2023-04-24T13:22:09;7.10;;;4.00;;
78430;SDS011;67727;50.236;22.452;2023-04-24T13:24:37;5.30;;;3.70;;
78430;SDS011;67727;50.236;22.452;2023-04-24T13:27:07;4.80;;;3.70;;
78430;SDS011;67727;50.236;22.452;2023-04-24T13:29:35;5.80;;;3.70;;
78430;SDS011;67727;50.236;22.452;2023-04-24T13:32:02;6.90;;;4.00;;
78430;SDS011;67727;50.236;22.452;2023-04-24T13:36:56;5.20;;;3.90;;
78430;SDS011;67727;50.236;22.452;2023-04-24T13:39:24;5.20;;;3.70;;
78430;SDS011;67727;50.236;22.452;2023-04-24T13:41:52;4.90;;;3.60;;
78430;SDS011;67727;50.236;22.452;2023-04-24T13:44:20;4.50;;;3.20;;
78430;SDS011;67727;50.236;22.452;2023-04-24T13:46:48;6.50;;;3.70;;
78430;SDS011;67727;50.236;22.452;2023-04-24T13:49:18;6.90;;;3.80;;
78430;SDS011;67727;50.236;22.452;2023-04-24T13:51:45;4.70;;;3.20;;
78430;SDS011;67727;50.236;22.452;2023-04-24T13:54:12;4.60;;;3.90;;
78430;SDS011;67727;50.236;22.452;2023-04-24T13:56:39;4.90;;;3.60;;
78430;SDS011;67727;50.236;22.452;2023-04-24T13:59:06;6.90;;;3.40;;
78430;SDS011;67727;50.236;22.452;2023-04-24T14:01:33;6.00;;;3.40;;
78430;SDS011;67727;50.236;22.452;2023-04-24T14:04:01;6.70;;;3.90;;
78430;SDS011;67727;50.236;22.452;2023-04-24T14:06:27;4.80;;;3.80;;
78430;SDS011;67727;50.236;22.452;2023-04-24T14:08:54;4.70;;;3.80;;
78430;SDS011;67727;50.236;22.452;2023-04-24T14:11:21;5.50;;;3.60;;
78430;SDS011;67727;50.236;22.452;2023-04-24T14:13:48;7.10;;;4.10;;
78430;SDS011;67727;50.236;22.452;2023-04-24T14:16:16;4.80;;;3.80;;
78430;SDS011;67727;50.236;22.452;2023-04-24T14:18:43;4.80;;;3.90;;
78430;SDS011;67727;50.236;22.452;2023-04-24T14:21:09;5.40;;;3.50;;
78430;SDS011;67727;50.236;22.452;2023-04-24T14:23:36;6.40;;;4.10;;
78430;SDS011;67727;50.236;22.452;2023-04-24T14:26:03;7.20;;;4.30;;
78430;SDS011;67727;50.236;22.452;2023-04-24T14:28:30;5.90;;;3.90;;
78430;SDS011;67727;50.236;22.452;2023-04-24T14:30:57;6.20;;;3.80;;
78430;SDS011;67727;50.236;22.452;2023-04-24T14:33:23;8.60;;;4.10;;
78430;SDS011;67727;50.236;22.452;2023-04-24T14:35:50;9.20;;;3.60;;
78430;SDS011;67727;50.236;22.452;2023-04-24T14:38:17;6.20;;;4.30;;
78430;SDS011;67727;50.236;22.452;2023-04-24T14:40:44;7.20;;;4.40;;
78430;SDS011;67727;50.236;22.452;2023-04-24T14:43:11;7.20;;;4.20;;
78430;SDS011;67727;50.236;22.452;2023-04-24T14:45:37;7.10;;;4.60;;
78430;SDS011;67727;50.236;22.452;2023-04-24T14:50:31;7.00;;;4.30;;
78430;SDS011;67727;50.236;22.452;2023-04-24T14:52:58;8.10;;;4.50;;
78430;SDS011;67727;50.236;22.452;2023-04-24T14:55:25;6.00;;;4.70;;
78430;SDS011;67727;50.236;22.452;2023-04-24T14:57:52;6.70;;;4.10;;
78430;SDS011;67727;50.236;22.452;2023-04-24T15:02:47;6.80;;;4.70;;
78430;SDS011;67727;50.236;22.452;2023-04-24T15:05:13;4.90;;;3.80;;
78430;SDS011;67727;50.236;22.452;2023-04-24T15:07:40;7.10;;;4.20;;
78430;SDS011;67727;50.236;22.452;2023-04-24T15:10:11;5.50;;;4.10;;
78430;SDS011;67727;50.236;22.452;2023-04-24T15:12:38;10.50;;;4.50;;
78430;SDS011;67727;50.236;22.452;2023-04-24T15:15:05;8.30;;;5.10;;
78430;SDS011;67727;50.236;22.452;2023-04-24T15:17:33;8.20;;;5.60;;
78430;SDS011;67727;50.236;22.452;2023-04-24T15:19:59;7.80;;;5.00;;